Time;durP1;ratioP1;P1;durP2;ratioP2;P2;SDS_P1;SDS_P2;PMS_P1;PMS_P2;Temp;Humidity;BMP_temperature;BMP_pressure;BME280_temperature;BME280_humidity;BME280_pressure;Samples;Min_cycle;Max_cycle;Signal;HPM_P1;HPM_P2
2023/07/16 00:00:56;;;;;;;7.38;6.43;;;;;;;;;;5000527;28;20072;-81
2023/07/16 00:03:21;;;;;;;11.27;6.63;;;;;;;;;;5016800;28;20029;-81
2023/07/16 00:05:50;;;;;;;13.13;7.00;;;;;;;;;;5015943;28;20546;-82
2023/07/16 00:08:15;;;;;;;11.75;6.47;;;;;;;;;;5033934;28;20037;-82
2023/07/16 00:10:41;;;;;;;12.02;6.60;;;;;;;;;;5016543;28;20093;-79
2023/07/16 00:13:06;;;;;;;9.90;6.40;;;;;;;;;;5016603;28;20380;-80
2023/07/16 00:15:32;;;;;;;11.10;6.32;;;;;;;;;;5016534;28;20029;-81
2023/07/16 00:17:57;;;;;;;8.00;5.90;;;;;;;;;;5016622;28;20436;-81
2023/07/16 00:20:25;;;;;;;10.93;6.35;;;;;;;;;;5016641;28;20128;-81
2023/07/16 00:22:51;;;;;;;9.13;6.40;;;;;;;;;;5000685;28;20036;-81
2023/07/16 00:25:17;;;;;;;7.72;6.28;;;;;;;;;;5032980;28;20033;-79
2023/07/16 00:27:42;;;;;;;9.90;6.53;;;;;;;;;;5016136;28;20496;-81
2023/07/16 00:30:08;;;;;;;9.20;6.13;;;;;;;;;;5032778;28;20372;-80
2023/07/16 00:32:34;;;;;;;8.00;5.85;;;;;;;;;;5016642;28;20036;-80
2023/07/16 00:35:00;;;;;;;15.60;6.38;;;;;;;;;;5016684;28;20030;-80
2023/07/16 00:37:25;;;;;;;8.75;6.50;;;;;;;;;;5032297;28;20045;-80
2023/07/16 00:39:51;;;;;;;9.52;5.78;;;;;;;;;;5034154;28;20033;-79
2023/07/16 00:42:16;;;;;;;12.98;6.00;;;;;;;;;;5032544;28;20033;-80
2023/07/16 00:44:42;;;;;;;9.52;6.28;;;;;;;;;;5032592;28;20096;-79
2023/07/16 00:47:08;;;;;;;10.55;6.28;;;;;;;;;;5032731;28;20112;-81
2023/07/16 00:49:33;;;;;;;9.35;6.13;;;;;;;;;;5016103;28;20021;-81
2023/07/16 00:51:59;;;;;;;12.25;6.50;;;;;;;;;;4999652;28;20411;-80
2023/07/16 00:54:24;;;;;;;8.93;6.72;;;;;;;;;;5016099;28;20516;-80
2023/07/16 00:56:50;;;;;;;13.43;6.82;;;;;;;;;;5032614;28;20116;-80
2023/07/16 00:59:15;;;;;;;13.30;6.18;;;;;;;;;;5032321;28;20377;-80
2023/07/16 01:01:41;;;;;;;11.63;6.68;;;;;;;;;;5016068;28;20025;-80
2023/07/16 01:04:06;;;;;;;8.23;6.80;;;;;;;;;;5033438;28;20021;-80
2023/07/16 01:06:35;;;;;;;10.00;6.57;;;;;;;;;;5015639;28;20095;-79
2023/07/16 01:09:17;;;;;;;11.75;7.05;;;;;;;;;;5032284;28;20025;-80
2023/07/16 01:11:43;;;;;;;23.38;6.65;;;;;;;;;;5032146;28;20022;-80
2023/07/16 01:14:08;;;;;;;9.10;6.97;;;;;;;;;;5032085;28;20109;-80
2023/07/16 01:16:34;;;;;;;8.65;6.43;;;;;;;;;;5015624;28;20040;-80
2023/07/16 01:18:59;;;;;;;11.43;6.60;;;;;;;;;;5018883;28;20033;-81
2023/07/16 01:21:25;;;;;;;7.88;6.47;;;;;;;;;;5019590;28;20404;-81
2023/07/16 01:24:18;;;;;;;10.73;6.85;;;;;;;;;;5019432;28;20026;-81
2023/07/16 01:27:21;;;;;;;9.98;6.80;;;;;;;;;;5035900;28;20040;-80
2023/07/16 01:29:49;;;;;;;9.27;7.28;;;;;;;;;;5035885;28;20083;-80
2023/07/16 01:32:15;;;;;;;13.57;7.13;;;;;;;;;;5019234;28;20079;-81
2023/07/16 01:34:40;;;;;;;9.60;7.25;;;;;;;;;;5018866;28;20033;-82
2023/07/16 01:37:06;;;;;;;10.02;7.30;;;;;;;;;;5019029;28;20029;-81
2023/07/16 01:39:32;;;;;;;9.98;7.43;;;;;;;;;;5035358;28;20033;-80
2023/07/16 01:41:58;;;;;;;14.93;7.53;;;;;;;;;;5035574;28;20469;-81
2023/07/16 01:44:23;;;;;;;15.45;7.20;;;;;;;;;;5035447;28;20017;-82
2023/07/16 01:47:12;;;;;;;11.63;7.40;;;;;;;;;;5035496;28;20033;-81
2023/07/16 01:49:38;;;;;;;13.23;8.13;;;;;;;;;;5034680;28;20140;-81
2023/07/16 01:52:05;;;;;;;11.43;7.55;;;;;;;;;;5018876;28;20112;-81
2023/07/16 01:54:30;;;;;;;10.25;7.20;;;;;;;;;;5036390;28;20029;-83
2023/07/16 01:56:55;;;;;;;10.77;7.57;;;;;;;;;;5002288;28;20030;-83
2023/07/16 01:59:21;;;;;;;10.98;7.40;;;;;;;;;;5035109;28;20037;-81
2023/07/16 02:01:46;;;;;;;12.23;7.18;;;;;;;;;;5018790;28;20049;-81
2023/07/16 02:04:12;;;;;;;13.13;7.53;;;;;;;;;;5018338;28;20429;-81
2023/07/16 02:06:37;;;;;;;13.02;7.60;;;;;;;;;;5018601;28;20041;-81
2023/07/16 02:09:02;;;;;;;10.25;7.30;;;;;;;;;;5034847;28;20041;-80
2023/07/16 02:11:28;;;;;;;11.95;7.90;;;;;;;;;;5018396;28;20030;-80
2023/07/16 02:13:54;;;;;;;14.88;7.63;;;;;;;;;;5002080;28;20030;-81
2023/07/16 02:16:19;;;;;;;10.63;7.50;;;;;;;;;;5018362;28;20562;-80
2023/07/16 02:18:45;;;;;;;11.98;7.97;;;;;;;;;;5034539;28;20025;-80
2023/07/16 02:21:10;;;;;;;11.27;7.95;;;;;;;;;;5018490;28;20064;-81
2023/07/16 02:23:36;;;;;;;12.60;7.90;;;;;;;;;;5001953;28;20032;-81
2023/07/16 02:26:01;;;;;;;10.63;7.40;;;;;;;;;;5018458;28;20029;-80
2023/07/16 02:28:26;;;;;;;14.85;7.40;;;;;;;;;;5035698;28;20523;-80
2023/07/16 02:30:52;;;;;;;12.07;7.90;;;;;;;;;;5020466;28;20449;-82
2023/07/16 02:33:17;;;;;;;11.50;7.40;;;;;;;;;;5023041;28;20029;-80
2023/07/16 02:35:49;;;;;;;12.88;7.85;;;;;;;;;;5038905;28;20080;-81
2023/07/16 02:38:15;;;;;;;15.85;8.80;;;;;;;;;;5021561;28;20116;-80
2023/07/16 02:40:47;;;;;;;11.90;8.55;;;;;;;;;;5036251;28;20121;-82
2023/07/16 02:43:13;;;;;;;14.25;8.77;;;;;;;;;;5038430;28;20033;-80
2023/07/16 02:45:38;;;;;;;12.35;8.02;;;;;;;;;;5004429;28;20041;-80
2023/07/16 02:48:04;;;;;;;15.65;8.90;;;;;;;;;;5018167;28;20033;-82
2023/07/16 02:50:30;;;;;;;17.40;8.75;;;;;;;;;;5019306;28;20033;-82
2023/07/16 02:52:55;;;;;;;13.98;8.45;;;;;;;;;;5038455;28;20060;-81
2023/07/16 02:55:21;;;;;;;12.75;8.52;;;;;;;;;;5039458;28;20033;-81
2023/07/16 02:57:46;;;;;;;14.90;8.25;;;;;;;;;;5037377;28;20033;-82
2023/07/16 03:00:12;;;;;;;12.40;7.75;;;;;;;;;;5039100;28;20033;-82
2023/07/16 03:02:37;;;;;;;15.80;8.38;;;;;;;;;;5035806;28;20037;-82
2023/07/16 03:05:03;;;;;;;11.77;7.40;;;;;;;;;;5001505;28;20052;-82
2023/07/16 03:07:28;;;;;;;12.80;8.35;;;;;;;;;;5034646;28;20033;-81
2023/07/16 03:09:54;;;;;;;12.25;7.70;;;;;;;;;;5006052;28;20449;-81
2023/07/16 03:12:19;;;;;;;10.98;8.10;;;;;;;;;;5037651;28;20476;-81
2023/07/16 03:14:45;;;;;;;9.05;7.63;;;;;;;;;;5021892;28;20025;-81
2023/07/16 03:17:11;;;;;;;13.80;8.43;;;;;;;;;;5038923;28;20052;-80
2023/07/16 03:19:36;;;;;;;12.20;8.43;;;;;;;;;;5038102;28;20034;-81
2023/07/16 03:22:02;;;;;;;10.88;7.70;;;;;;;;;;5020295;28;20026;-80
2023/07/16 03:24:28;;;;;;;11.63;7.72;;;;;;;;;;5034032;28;20021;-81
2023/07/16 03:26:53;;;;;;;11.18;7.80;;;;;;;;;;5018003;28;20029;-81
2023/07/16 03:29:19;;;;;;;10.95;7.82;;;;;;;;;;5036692;28;20475;-81
2023/07/16 03:31:44;;;;;;;11.80;8.23;;;;;;;;;;5019985;28;20441;-81
2023/07/16 03:34:09;;;;;;;12.25;7.53;;;;;;;;;;5036830;28;20042;-81
2023/07/16 03:36:35;;;;;;;13.25;7.50;;;;;;;;;;5036725;28;20037;-81
2023/07/16 03:39:00;;;;;;;9.98;7.70;;;;;;;;;;5040040;28;20033;-82
2023/07/16 03:41:26;;;;;;;12.57;8.40;;;;;;;;;;5035178;28;20065;-80
2023/07/16 03:43:51;;;;;;;15.15;7.88;;;;;;;;;;5018385;28;20120;-81
2023/07/16 03:46:16;;;;;;;13.85;8.05;;;;;;;;;;5034224;28;20120;-81
2023/07/16 03:48:42;;;;;;;12.45;7.63;;;;;;;;;;5033089;28;20055;-82
2023/07/16 03:51:07;;;;;;;10.45;7.88;;;;;;;;;;5016583;28;20056;-80
2023/07/16 03:53:33;;;;;;;11.50;7.90;;;;;;;;;;5016839;28;20456;-80
2023/07/16 03:55:58;;;;;;;11.15;7.85;;;;;;;;;;5016739;28;20017;-81
2023/07/16 03:58:24;;;;;;;10.35;7.25;;;;;;;;;;5018264;28;20026;-81
2023/07/16 04:00:49;;;;;;;14.88;8.18;;;;;;;;;;5017701;28;20032;-81
2023/07/16 04:03:14;;;;;;;13.68;8.00;;;;;;;;;;5001221;28;20021;-82
2023/07/16 04:05:40;;;;;;;13.13;8.60;;;;;;;;;;5016629;28;20103;-81
2023/07/16 04:08:05;;;;;;;12.93;8.38;;;;;;;;;;5032651;28;20452;-81
2023/07/16 04:10:31;;;;;;;11.50;8.45;;;;;;;;;;5032822;28;20388;-80
2023/07/16 04:12:56;;;;;;;13.27;8.18;;;;;;;;;;5033995;28;20022;-81
2023/07/16 04:15:21;;;;;;;11.20;8.10;;;;;;;;;;5033780;28;20068;-80
2023/07/16 04:17:47;;;;;;;14.88;8.68;;;;;;;;;;5016350;28;20065;-80
2023/07/16 04:20:12;;;;;;;14.18;8.88;;;;;;;;;;5034818;28;20040;-80
2023/07/16 04:22:38;;;;;;;14.10;8.80;;;;;;;;;;5033870;28;20448;-81
2023/07/16 04:25:04;;;;;;;15.55;8.80;;;;;;;;;;5033761;28;20373;-82
2023/07/16 04:27:30;;;;;;;10.90;8.27;;;;;;;;;;5034012;28;20447;-82
2023/07/16 04:29:55;;;;;;;12.95;8.55;;;;;;;;;;5033011;28;20044;-82
2023/07/16 04:32:20;;;;;;;11.90;8.45;;;;;;;;;;5016292;28;20022;-81
2023/07/16 04:34:46;;;;;;;17.20;8.43;;;;;;;;;;5016515;28;20080;-81
2023/07/16 04:37:11;;;;;;;11.23;8.45;;;;;;;;;;5032608;28;20024;-81
2023/07/16 04:39:37;;;;;;;15.45;8.43;;;;;;;;;;5032779;28;20033;-82
2023/07/16 04:42:02;;;;;;;11.95;8.50;;;;;;;;;;5016745;28;20026;-81
2023/07/16 04:44:28;;;;;;;12.38;8.73;;;;;;;;;;5016393;28;20029;-82
2023/07/16 04:46:53;;;;;;;15.10;8.40;;;;;;;;;;5032728;28;20044;-82
2023/07/16 04:49:18;;;;;;;12.63;8.32;;;;;;;;;;5032522;28;20036;-81
2023/07/16 04:51:44;;;;;;;10.50;8.52;;;;;;;;;;5016233;28;20036;-81
2023/07/16 04:54:09;;;;;;;14.75;8.77;;;;;;;;;;5019671;28;20029;-81
2023/07/16 04:56:35;;;;;;;9.98;8.20;;;;;;;;;;5020382;28;20038;-81
2023/07/16 04:59:00;;;;;;;13.77;8.45;;;;;;;;;;5019384;28;20038;-80
2023/07/16 05:01:26;;;;;;;12.60;8.45;;;;;;;;;;5036077;28;20064;-81
2023/07/16 05:03:52;;;;;;;10.05;8.43;;;;;;;;;;5037534;28;20333;-81
2023/07/16 05:06:17;;;;;;;14.55;8.77;;;;;;;;;;5051953;28;20120;-81
2023/07/16 05:08:43;;;;;;;10.20;8.38;;;;;;;;;;5006630;28;20029;-81
2023/07/16 05:11:08;;;;;;;11.48;9.02;;;;;;;;;;5039263;28;20102;-81
2023/07/16 05:13:34;;;;;;;10.23;8.27;;;;;;;;;;5022732;28;20369;-81
2023/07/16 05:15:59;;;;;;;12.82;8.18;;;;;;;;;;5022990;28;20037;-80
2023/07/16 05:18:24;;;;;;;16.70;9.07;;;;;;;;;;5056847;28;20414;-81
2023/07/16 05:20:50;;;;;;;13.63;8.95;;;;;;;;;;5022517;28;20037;-82
2023/07/16 05:23:15;;;;;;;10.98;8.85;;;;;;;;;;5038945;28;20024;-80
2023/07/16 05:25:48;;;;;;;12.73;8.57;;;;;;;;;;5039193;28;20028;-82
2023/07/16 05:28:14;;;;;;;15.90;9.18;;;;;;;;;;5022419;28;20148;-82
2023/07/16 05:30:39;;;;;;;12.32;9.18;;;;;;;;;;5022615;28;20360;-81
2023/07/16 05:33:05;;;;;;;15.60;8.68;;;;;;;;;;5022538;28;20033;-82
2023/07/16 05:35:30;;;;;;;11.48;8.70;;;;;;;;;;5022381;28;20033;-81
2023/07/16 05:37:56;;;;;;;13.77;8.00;;;;;;;;;;5022215;28;20033;-82
2023/07/16 05:40:21;;;;;;;12.02;8.02;;;;;;;;;;5038594;28;20033;-81
2023/07/16 05:42:47;;;;;;;12.75;8.02;;;;;;;;;;5005454;28;20029;-81
2023/07/16 05:45:12;;;;;;;11.80;7.82;;;;;;;;;;5038650;28;20017;-82
2023/07/16 05:47:37;;;;;;;12.18;7.90;;;;;;;;;;5038637;28;20095;-83
2023/07/16 05:50:03;;;;;;;9.13;7.85;;;;;;;;;;5022211;28;20055;-82
2023/07/16 05:52:29;;;;;;;12.07;7.45;;;;;;;;;;5022380;28;20029;-81
2023/07/16 05:54:54;;;;;;;14.23;8.13;;;;;;;;;;5022017;28;20032;-82
2023/07/16 05:57:19;;;;;;;11.63;7.47;;;;;;;;;;5038416;28;20040;-82
2023/07/16 05:59:45;;;;;;;11.80;7.75;;;;;;;;;;5005666;28;20037;-81
2023/07/16 06:02:10;;;;;;;12.23;7.50;;;;;;;;;;5056073;28;20429;-81
2023/07/16 06:04:36;;;;;;;13.13;7.65;;;;;;;;;;5037003;28;20032;-84
2023/07/16 06:07:02;;;;;;;8.45;6.60;;;;;;;;;;5056358;28;20104;-81
2023/07/16 06:09:28;;;;;;;8.15;6.40;;;;;;;;;;5022007;28;20052;-83
2023/07/16 06:11:53;;;;;;;8.30;6.68;;;;;;;;;;5037851;28;20021;-81
2023/07/16 06:14:18;;;;;;;8.48;6.82;;;;;;;;;;5038138;28;20036;-82
2023/07/16 06:16:44;;;;;;;9.18;6.75;;;;;;;;;;5038040;28;20040;-81
2023/07/16 06:19:09;;;;;;;10.73;6.97;;;;;;;;;;5055956;28;20040;-82
2023/07/16 06:21:35;;;;;;;17.48;6.72;;;;;;;;;;5021507;28;20100;-81
2023/07/16 06:24:00;;;;;;;14.32;6.82;;;;;;;;;;5037937;28;20024;-82
2023/07/16 06:26:26;;;;;;;12.10;7.03;;;;;;;;;;5021650;28;20037;-82
2023/07/16 06:28:51;;;;;;;11.27;6.75;;;;;;;;;;5021505;28;20111;-81
2023/07/16 06:31:17;;;;;;;11.85;6.68;;;;;;;;;;5021515;28;20054;-81
2023/07/16 06:33:42;;;;;;;14.70;7.50;;;;;;;;;;5021353;28;20387;-82
2023/07/16 06:36:08;;;;;;;14.73;7.03;;;;;;;;;;5021730;28;20021;-82
2023/07/16 06:38:33;;;;;;;10.20;7.38;;;;;;;;;;5022131;28;20136;-82
2023/07/16 06:40:59;;;;;;;9.95;7.03;;;;;;;;;;5005420;28;20033;-82
2023/07/16 06:43:24;;;;;;;9.68;6.72;;;;;;;;;;5049689;28;20060;-82
2023/07/16 06:45:52;;;;;;;8.10;6.72;;;;;;;;;;5028375;28;20036;-82
2023/07/16 06:48:18;;;;;;;7.68;6.57;;;;;;;;;;5041711;28;20023;-86
2023/07/16 06:50:43;;;;;;;11.73;7.25;;;;;;;;;;5045274;28;20045;-82
2023/07/16 06:53:09;;;;;;;11.10;7.32;;;;;;;;;;5044792;28;20036;-82
2023/07/16 06:55:34;;;;;;;10.05;7.18;;;;;;;;;;5044655;28;20036;-84
2023/07/16 06:58:00;;;;;;;14.05;7.90;;;;;;;;;;5012202;28;20037;-82
2023/07/16 07:00:26;;;;;;;10.43;7.63;;;;;;;;;;5020846;28;20033;-82
2023/07/16 07:02:51;;;;;;;10.07;7.28;;;;;;;;;;5055077;28;20451;-82
2023/07/16 07:05:16;;;;;;;9.52;7.07;;;;;;;;;;5020670;28;20045;-81
2023/07/16 07:07:43;;;;;;;9.82;7.38;;;;;;;;;;5055380;28;20301;-82
2023/07/16 07:10:08;;;;;;;8.48;7.40;;;;;;;;;;5037127;28;20037;-82
2023/07/16 07:12:37;;;;;;;13.10;7.15;;;;;;;;;;5055174;28;20036;-82
2023/07/16 07:15:03;;;;;;;;;;;;;;;;;;5021078;28;20029;-81
2023/07/16 07:17:28;;;;;;;11.52;7.57;;;;;;;;;;5020892;28;19934;-81
2023/07/16 07:19:54;;;;;;;10.45;7.28;;;;;;;;;;5054885;28;20036;-82
2023/07/16 07:22:19;;;;;;;18.23;8.20;;;;;;;;;;5020530;28;20366;-83
2023/07/16 07:24:45;;;;;;;12.75;7.43;;;;;;;;;;5020471;28;20406;-82
2023/07/16 07:27:10;;;;;;;13.43;7.55;;;;;;;;;;5037076;28;20029;-82
2023/07/16 07:29:35;;;;;;;11.63;7.55;;;;;;;;;;5020758;28;20032;-81
2023/07/16 07:32:01;;;;;;;9.45;7.60;;;;;;;;;;5036993;28;20025;-81
2023/07/16 07:34:26;;;;;;;11.18;7.60;;;;;;;;;;5054715;28;20372;-83
2023/07/16 07:36:52;;;;;;;12.75;7.53;;;;;;;;;;5036593;28;20503;-82
2023/07/16 07:39:17;;;;;;;8.60;7.72;;;;;;;;;;5036747;28;20033;-82
2023/07/16 07:41:43;;;;;;;13.10;8.35;;;;;;;;;;5036718;28;20453;-83
2023/07/16 07:44:08;;;;;;;9.90;8.13;;;;;;;;;;5003885;28;20029;-82
2023/07/16 07:46:33;;;;;;;18.83;8.32;;;;;;;;;;5020283;28;20032;-81
2023/07/16 07:48:59;;;;;;;9.88;8.07;;;;;;;;;;5020480;28;20033;-81
2023/07/16 07:51:25;;;;;;;11.20;8.75;;;;;;;;;;5003720;28;20094;-83
2023/07/16 07:53:50;;;;;;;17.27;8.13;;;;;;;;;;5036729;28;20029;-82
2023/07/16 07:56:15;;;;;;;12.02;8.75;;;;;;;;;;5036365;28;20456;-83
2023/07/16 07:58:41;;;;;;;18.02;8.95;;;;;;;;;;5036488;28;20033;-82
2023/07/16 08:01:07;;;;;;;10.43;8.23;;;;;;;;;;5019918;28;20440;-82
2023/07/16 08:03:33;;;;;;;10.18;8.23;;;;;;;;;;5036489;28;20534;-82
2023/07/16 08:05:58;;;;;;;16.40;8.13;;;;;;;;;;5019774;28;20037;-82
2023/07/16 08:08:24;;;;;;;14.07;7.55;;;;;;;;;;5036218;28;20111;-83
2023/07/16 08:10:49;;;;;;;16.00;7.82;;;;;;;;;;5020150;28;20032;-82
2023/07/16 08:13:14;;;;;;;11.63;8.00;;;;;;;;;;5019999;28;20024;-81
2023/07/16 08:15:40;;;;;;;11.00;7.63;;;;;;;;;;5019751;28;20396;-82
2023/07/16 08:18:05;;;;;;;15.07;8.32;;;;;;;;;;5036204;28;20411;-82
2023/07/16 08:20:31;;;;;;;13.82;8.57;;;;;;;;;;5003060;28;20044;-83
2023/07/16 08:22:56;;;;;;;12.60;8.00;;;;;;;;;;5054176;28;20116;-82
2023/07/16 08:25:22;;;;;;;12.18;8.10;;;;;;;;;;5036382;28;20040;-82
2023/07/16 08:27:47;;;;;;;16.13;8.20;;;;;;;;;;5018895;28;20066;-83
2023/07/16 08:30:13;;;;;;;14.75;8.13;;;;;;;;;;5019707;28;20456;-83
2023/07/16 08:32:39;;;;;;;22.55;7.88;;;;;;;;;;5036440;28;20107;-82
2023/07/16 08:35:04;;;;;;;10.25;8.00;;;;;;;;;;5019387;28;20467;-82
2023/07/16 08:37:30;;;;;;;13.02;7.63;;;;;;;;;;5020156;28;20116;-82
2023/07/16 08:39:55;;;;;;;14.18;7.70;;;;;;;;;;5036224;28;20422;-82
2023/07/16 08:42:21;;;;;;;8.95;7.05;;;;;;;;;;5036135;28;20037;-81
2023/07/16 08:44:48;;;;;;;18.55;7.18;;;;;;;;;;5035916;28;20036;-82
2023/07/16 08:47:13;;;;;;;11.77;7.40;;;;;;;;;;5036050;28;20083;-83
2023/07/16 08:49:39;;;;;;;8.73;7.38;;;;;;;;;;5020069;28;20025;-83
2023/07/16 08:52:05;;;;;;;11.68;7.80;;;;;;;;;;5019827;28;20071;-83
2023/07/16 08:54:30;;;;;;;11.35;8.13;;;;;;;;;;5053504;28;20033;-80
2023/07/16 08:56:56;;;;;;;10.95;7.43;;;;;;;;;;5019358;28;20460;-81
2023/07/16 08:59:21;;;;;;;10.18;7.40;;;;;;;;;;5035729;28;20353;-82
2023/07/16 09:01:47;;;;;;;14.82;7.28;;;;;;;;;;5022308;28;20051;-82
2023/07/16 09:04:13;;;;;;;12.30;7.22;;;;;;;;;;5019679;28;20021;-82
2023/07/16 09:06:39;;;;;;;12.38;7.75;;;;;;;;;;5035654;28;20079;-82
2023/07/16 09:09:04;;;;;;;12.50;7.70;;;;;;;;;;5020181;28;20506;-81
2023/07/16 09:11:30;;;;;;;11.95;7.40;;;;;;;;;;5007007;28;20060;-81
2023/07/16 09:13:55;;;;;;;9.88;7.78;;;;;;;;;;5041244;28;20044;-82
2023/07/16 09:16:21;;;;;;;12.52;8.25;;;;;;;;;;5031825;28;20476;-81
2023/07/16 09:18:46;;;;;;;10.73;7.78;;;;;;;;;;5046136;28;20098;-83
2023/07/16 09:21:12;;;;;;;9.57;7.88;;;;;;;;;;5054431;28;20033;-82
2023/07/16 09:23:37;;;;;;;11.70;7.88;;;;;;;;;;5006063;28;20061;-82
2023/07/16 09:26:03;;;;;;;10.63;7.53;;;;;;;;;;5021048;28;20029;-82
2023/07/16 09:28:30;;;;;;;12.95;7.68;;;;;;;;;;5040455;28;20033;-82
2023/07/16 09:30:55;;;;;;;8.48;6.95;;;;;;;;;;5036472;28;20036;-82
2023/07/16 09:33:22;;;;;;;13.68;8.13;;;;;;;;;;5022352;28;20025;-82
2023/07/16 09:35:51;;;;;;;10.25;7.30;;;;;;;;;;5019322;28;20063;-83
2023/07/16 09:38:17;;;;;;;11.07;7.30;;;;;;;;;;5035879;28;20029;-82
2023/07/16 09:40:42;;;;;;;9.30;7.32;;;;;;;;;;5022461;28;20065;-82
2023/07/16 09:43:08;;;;;;;10.43;7.18;;;;;;;;;;5038806;28;20448;-82
2023/07/16 09:45:34;;;;;;;11.40;7.10;;;;;;;;;;5022273;28;20024;-82
2023/07/16 09:48:00;;;;;;;13.63;7.47;;;;;;;;;;5006202;28;20033;-82
2023/07/16 09:50:27;;;;;;;12.57;7.00;;;;;;;;;;5006564;28;20025;-81
2023/07/16 09:52:52;;;;;;;7.82;7.03;;;;;;;;;;5022301;28;20036;-81
2023/07/16 09:55:18;;;;;;;9.05;7.35;;;;;;;;;;5039001;28;20353;-82
2023/07/16 09:57:43;;;;;;;15.57;7.00;;;;;;;;;;5038747;28;20471;-82
2023/07/16 10:00:12;;;;;;;11.68;7.18;;;;;;;;;;5005953;28;20090;-82
2023/07/16 10:02:37;;;;;;;10.32;6.90;;;;;;;;;;5038404;28;20135;-82
2023/07/16 10:05:19;;;;;;;12.27;7.15;;;;;;;;;;5005957;28;20456;-82
2023/07/16 10:08:17;;;;;;;11.95;6.80;;;;;;;;;;5038666;28;20032;-82
2023/07/16 10:10:51;;;;;;;12.38;7.88;;;;;;;;;;5038228;28;20033;-82
2023/07/16 10:13:17;;;;;;;12.27;7.85;;;;;;;;;;5007212;28;20040;-81
2023/07/16 10:15:58;;;;;;;9.15;7.15;;;;;;;;;;5005783;28;20120;-81
2023/07/16 10:18:27;;;;;;;15.65;7.32;;;;;;;;;;5021186;28;20034;-83
2023/07/16 10:20:53;;;;;;;13.13;7.63;;;;;;;;;;5005837;28;20033;-82
2023/07/16 10:23:19;;;;;;;13.68;6.97;;;;;;;;;;5038385;28;20036;-81
2023/07/16 10:26:00;;;;;;;7.63;6.82;;;;;;;;;;5055971;28;20056;-80
2023/07/16 10:28:26;;;;;;;9.38;7.07;;;;;;;;;;5021790;28;20120;-81
2023/07/16 10:30:52;;;;;;;18.08;7.18;;;;;;;;;;5022154;28;20175;-81
2023/07/16 10:33:17;;;;;;;11.20;7.15;;;;;;;;;;5055677;28;20375;-81
2023/07/16 10:35:44;;;;;;;10.55;6.50;;;;;;;;;;5021462;28;20025;-83
2023/07/16 10:38:09;;;;;;;10.57;6.70;;;;;;;;;;5021661;28;20031;-81
2023/07/16 10:40:42;;;;;;;9.93;6.50;;;;;;;;;;5004756;28;20033;-81
2023/07/16 10:43:08;;;;;;;8.43;5.80;;;;;;;;;;5022120;28;20025;-82
2023/07/16 10:45:33;;;;;;;10.38;6.43;;;;;;;;;;5037621;28;20024;-81
2023/07/16 10:47:59;;;;;;;11.85;6.32;;;;;;;;;;5005324;28;20028;-81
2023/07/16 10:50:24;;;;;;;8.50;5.97;;;;;;;;;;5055138;28;20028;-82
2023/07/16 10:52:56;;;;;;;7.72;5.75;;;;;;;;;;5055285;28;20029;-80
2023/07/16 10:55:21;;;;;;;12.88;6.28;;;;;;;;;;5038182;28;20413;-81
2023/07/16 10:57:48;;;;;;;13.35;5.93;;;;;;;;;;5021125;28;20020;-81
2023/07/16 11:00:14;;;;;;;9.90;5.40;;;;;;;;;;5004890;28;20380;-81
2023/07/16 11:02:40;;;;;;;10.15;5.38;;;;;;;;;;5005148;28;20025;-82
2023/07/16 11:05:09;;;;;;;13.20;5.25;;;;;;;;;;5021524;28;20175;-81
2023/07/16 11:07:34;;;;;;;;;;;;;;;;;;5021799;28;20025;-81
2023/07/16 11:10:02;;;;;;;11.10;4.80;;;;;;;;;;5037367;28;20471;-81
2023/07/16 11:12:28;;;;;;;11.50;5.10;;;;;;;;;;5037891;28;20282;-81
2023/07/16 11:14:54;;;;;;;8.70;5.70;;;;;;;;;;5020287;28;20021;-81
2023/07/16 11:17:20;;;;;;;11.02;5.78;;;;;;;;;;5037228;28;20056;-80
2023/07/16 11:19:50;;;;;;;10.90;5.50;;;;;;;;;;5037121;28;20114;-81
2023/07/16 11:22:16;;;;;;;10.80;5.35;;;;;;;;;;5036299;28;20060;-80
2023/07/16 11:24:44;;;;;;;14.13;5.28;;;;;;;;;;5037123;28;20082;-81
2023/07/16 11:27:15;;;;;;;8.88;5.57;;;;;;;;;;5037211;28;20028;-82
2023/07/16 11:29:44;;;;;;;15.15;5.72;;;;;;;;;;5004254;28;20028;-82
2023/07/16 11:32:10;;;;;;;6.95;5.50;;;;;;;;;;5036999;28;20025;-84
2023/07/16 11:34:36;;;;;;;9.35;5.70;;;;;;;;;;5036845;28;20415;-82
2023/07/16 11:37:09;;;;;;;11.23;5.53;;;;;;;;;;5036700;28;20124;-82
2023/07/16 11:39:35;;;;;;;9.57;6.18;;;;;;;;;;5037155;28;20052;-84
2023/07/16 11:42:02;;;;;;;12.32;6.32;;;;;;;;;;5036988;28;20075;-83
2023/07/16 11:44:32;;;;;;;13.43;6.07;;;;;;;;;;5036715;28;20032;-82
2023/07/16 11:46:58;;;;;;;9.38;6.15;;;;;;;;;;5020637;28;20510;-83
2023/07/16 11:49:24;;;;;;;12.90;6.50;;;;;;;;;;5004044;28;20677;-82
2023/07/16 11:51:49;;;;;;;12.70;6.93;;;;;;;;;;5054741;28;20379;-83
2023/07/16 11:54:15;;;;;;;12.93;6.60;;;;;;;;;;5036441;28;20456;-83
2023/07/16 11:56:40;;;;;;;11.82;7.20;;;;;;;;;;5054135;28;20029;-82
2023/07/16 11:59:05;;;;;;;9.82;7.00;;;;;;;;;;5019895;28;20033;-83
2023/07/16 12:01:31;;;;;;;14.07;6.90;;;;;;;;;;5053783;28;20025;-84
2023/07/16 12:03:56;;;;;;;12.40;6.55;;;;;;;;;;5053694;28;20017;-83
2023/07/16 12:06:21;;;;;;;9.07;6.82;;;;;;;;;;5036420;28;20052;-83
2023/07/16 12:08:47;;;;;;;18.40;6.93;;;;;;;;;;5003673;28;20025;-81
2023/07/16 12:11:12;;;;;;;7.30;6.55;;;;;;;;;;5036346;28;20468;-81
2023/07/16 12:13:38;;;;;;;10.45;6.63;;;;;;;;;;5035949;28;20090;-81
2023/07/16 12:16:04;;;;;;;11.05;7.07;;;;;;;;;;5036052;28;20033;-80
2023/07/16 12:18:30;;;;;;;17.92;7.10;;;;;;;;;;5019797;28;20036;-81
2023/07/16 12:20:56;;;;;;;14.82;7.05;;;;;;;;;;5019704;28;20029;-81
2023/07/16 12:23:21;;;;;;;14.18;7.15;;;;;;;;;;5020048;28;20422;-81
2023/07/16 12:25:47;;;;;;;15.10;7.25;;;;;;;;;;5003552;28;20033;-81
2023/07/16 12:28:13;;;;;;;13.65;7.15;;;;;;;;;;5035970;28;20086;-81
2023/07/16 12:30:38;;;;;;;11.85;7.13;;;;;;;;;;5019932;28;20032;-80
2023/07/16 12:33:04;;;;;;;11.60;7.72;;;;;;;;;;5053969;28;20051;-81
2023/07/16 12:35:29;;;;;;;14.98;7.43;;;;;;;;;;5053711;28;20459;-80
2023/07/16 12:37:57;;;;;;;14.85;7.25;;;;;;;;;;5019405;28;20448;-78
2023/07/16 12:40:23;;;;;;;11.57;7.30;;;;;;;;;;5036215;28;20182;-81
2023/07/16 12:42:49;;;;;;;12.77;7.10;;;;;;;;;;5019414;28;20807;-81
2023/07/16 12:45:14;;;;;;;10.98;7.15;;;;;;;;;;5053525;28;20052;-81
2023/07/16 12:47:40;;;;;;;12.43;7.05;;;;;;;;;;5035760;28;20428;-81
2023/07/16 12:50:06;;;;;;;19.60;7.15;;;;;;;;;;5053507;28;20028;-81
2023/07/16 12:52:31;;;;;;;8.85;6.50;;;;;;;;;;5002963;28;20404;-81
2023/07/16 12:54:57;;;;;;;11.40;6.70;;;;;;;;;;5019109;28;20459;-80
2023/07/16 12:57:22;;;;;;;17.35;7.63;;;;;;;;;;5019105;28;20440;-81
2023/07/16 12:59:48;;;;;;;13.35;7.55;;;;;;;;;;5053634;28;20037;-81
2023/07/16 13:02:13;;;;;;;10.45;6.60;;;;;;;;;;5035821;28;20029;-83
2023/07/16 13:04:39;;;;;;;10.68;6.85;;;;;;;;;;5019151;28;20036;-83
2023/07/16 13:07:05;;;;;;;15.90;7.50;;;;;;;;;;5035719;28;20149;-82
2023/07/16 13:09:30;;;;;;;12.30;7.70;;;;;;;;;;5035635;28;20086;-82
2023/07/16 13:11:55;;;;;;;10.65;7.30;;;;;;;;;;5019016;28;20444;-82
2023/07/16 13:14:21;;;;;;;13.18;7.07;;;;;;;;;;5037835;28;20040;-82
2023/07/16 13:16:46;;;;;;;12.88;8.48;;;;;;;;;;5022720;28;20052;-83
2023/07/16 13:19:12;;;;;;;10.80;7.80;;;;;;;;;;5057036;28;20384;-82
2023/07/16 13:21:37;;;;;;;16.30;7.78;;;;;;;;;;5039678;28;20036;-83
2023/07/16 13:24:03;;;;;;;11.68;7.32;;;;;;;;;;5039242;28;20100;-83
2023/07/16 13:26:28;;;;;;;18.10;7.80;;;;;;;;;;5057153;28;20029;-83
2023/07/16 13:28:54;;;;;;;12.13;7.95;;;;;;;;;;5022971;28;20523;-82
2023/07/16 13:31:19;;;;;;;13.02;7.72;;;;;;;;;;5039248;28;20033;-83
2023/07/16 13:33:44;;;;;;;11.75;8.20;;;;;;;;;;5039050;28;20064;-82
2023/07/16 13:36:10;;;;;;;11.35;7.28;;;;;;;;;;5038969;28;20041;-83
2023/07/16 13:38:35;;;;;;;9.77;7.32;;;;;;;;;;5039076;28;20024;-82
2023/07/16 13:41:01;;;;;;;13.93;7.80;;;;;;;;;;5056430;28;20048;-82
2023/07/16 13:43:26;;;;;;;13.10;7.25;;;;;;;;;;5022561;28;20028;-83
2023/07/16 13:45:52;;;;;;;12.23;7.07;;;;;;;;;;5056799;28;20031;-82
2023/07/16 13:48:17;;;;;;;14.20;7.18;;;;;;;;;;5038987;28;20063;-83
2023/07/16 13:50:43;;;;;;;15.07;7.10;;;;;;;;;;5056789;28;20513;-82
2023/07/16 13:53:08;;;;;;;10.05;7.30;;;;;;;;;;5038615;28;20381;-82
2023/07/16 13:55:34;;;;;;;12.55;7.40;;;;;;;;;;5056186;28;20021;-82
2023/07/16 13:57:59;;;;;;;13.48;7.25;;;;;;;;;;5038400;28;20033;-84
2023/07/16 14:00:25;;;;;;;15.10;7.53;;;;;;;;;;5005984;28;20040;-83
2023/07/16 14:02:50;;;;;;;11.60;7.57;;;;;;;;;;5022334;28;20025;-83
2023/07/16 14:05:16;;;;;;;16.23;7.22;;;;;;;;;;5035124;28;20094;-83
2023/07/16 14:07:41;;;;;;;10.82;7.28;;;;;;;;;;5035221;28;20463;-83
2023/07/16 14:10:07;;;;;;;12.23;7.28;;;;;;;;;;5002069;28;20048;-83
2023/07/16 14:12:34;;;;;;;16.48;7.15;;;;;;;;;;5035132;28;20025;-83
2023/07/16 14:14:59;;;;;;;12.57;7.53;;;;;;;;;;5036164;28;20022;-83
2023/07/16 14:17:25;;;;;;;13.18;7.47;;;;;;;;;;5002136;28;20384;-82
2023/07/16 14:19:51;;;;;;;13.15;7.75;;;;;;;;;;5018263;28;20120;-82
2023/07/16 14:22:16;;;;;;;13.63;7.60;;;;;;;;;;5036086;28;20405;-82
2023/07/16 14:24:42;;;;;;;15.05;7.47;;;;;;;;;;5034204;28;20088;-83
2023/07/16 14:27:08;;;;;;;14.93;7.60;;;;;;;;;;5035777;28;20449;-82